Latest Coastal Weather Observations for Kingscote

IDS60701

Issued at 4:51 am CDT Thursday 11 February 2016 (issued every 10 minutes, with the page automatically refreshed every 10 minutes)

About coastal observations | Map of coastal stations | Coastal observations for SA | Marine services | Other Formats
Station Details ID: 022841 Name: KINGSCOTE AERO Lat: -35.71 Lon: 137.52 Height: 6.23 m
Data from the previous 72 hours. | See also: Recent months at Kingscote
Date/Time
CDT
Temp

°C
Wind Pressure Rain
since 9am
mm
Weather Cloud Vis
km
Sea
Height
m
Swell
Dir
 
Speed
knots
Gust
knots
hPa Trend Height
m
Period
s
Dir
11/04:30am 17.7 SSE 9 13 1016.4 - 0.0 - Cloudy 10 - - - -
11/04:00am 17.7 SSE 11 16 1016.2 - 0.0 - Cloudy 10 - - - -
11/03:30am 17.7 SSE 11 14 1016.3 - 0.0 - Cloudy 10 - - - -
11/03:00am 17.7 SSE 13 19 1016.1 - 0.0 - Cloudy 10 - - - -
11/02:30am 17.8 SSE 13 18 1016.2 - 0.0 - Cloudy 10 - - - -
11/02:00am 17.3 SSE 10 17 1016.5 - 0.0 - Partly cloudy 10 - - - -
11/01:30am 17.3 SSE 14 18 1016.5 - 0.0 - Partly cloudy 10 - - - -
11/01:28am 17.3 SSE 14 18 1016.5 - 0.0 - Partly cloudy 10 - - - -
11/01:00am 17.7 SSE 15 20 1016.6 - 0.0 - Partly cloudy 10 - - - -
11/12:44am 17.7 SSE 16 21 1016.7 - 0.0 - Partly cloudy 10 - - - -
11/12:30am 17.3 S 14 19 1016.9 - 0.0 - Partly cloudy 10 - - - -
11/12:00am 16.7 S 13 15 1016.8 - 0.0 - - 10 - - - -
 
Date/Time
CDT
Temp

°C
Wind Pressure Rain
since 9am
mm
Weather Cloud Vis
km
Sea
Height
m
Swell
Dir
 
Speed
knots
Gust
knots
hPa Trend Height
m
Period
s
Dir
10/11:30pm 16.8 S 12 16 1016.8 - 0.0 - - 10 - - - -
10/11:00pm 17.5 SSE 15 19 1016.9 - 0.0 - - 10 - - - -
10/10:30pm 17.5 SSE 13 17 1016.9 - 0.0 - - 10 - - - -
10/10:00pm 17.2 SSE 11 15 1016.9 - 0.0 - Partly cloudy 10 - - - -
10/09:30pm 16.9 SSE 9 13 1016.7 - 0.0 - Partly cloudy 10 - - - -
10/09:00pm 17.4 SSE 10 12 1016.6 - 0.0 - - 10 - - - -
10/08:30pm 17.8 SSE 12 16 1016.5 - 0.0 - - 10 - - - -
10/08:00pm 18.4 SSE 14 18 1016.3 - 0.0 - - 10 - - - -
10/07:30pm 19.1 SSE 16 20 1016.2 - 0.0 - - 10 - - - -
10/07:00pm 20.0 SSE 15 19 1015.9 - 0.0 - - 10 - - - -
10/06:30pm 21.0 SSE 16 20 1015.8 - 0.0 - - 10 - - - -
10/06:00pm 21.5 SSE 17 22 1015.5 - 0.0 - - 10 - - - -
10/05:30pm 21.7 SSE 16 21 1015.3 - 0.0 - - 10 - - - -
10/05:00pm 22.4 SSE 15 19 1015.3 - 0.0 - - 10 - - - -
10/04:30pm 22.6 SSE 15 20 1015.2 - 0.0 - - 10 - - - -
10/04:00pm 23.6 SSE 14 19 1015.3 - 0.0 - - 10 - - - -
10/03:30pm 22.3 SSE 14 18 1015.4 - 0.0 - - 10 - - - -
10/03:00pm 22.9 SE 14 20 1015.6 - 0.0 - - 10 - - - -
10/02:30pm 22.9 SE 15 21 1015.7 - 0.0 - - 10 - - - -
10/02:00pm 22.2 SE 14 19 1015.9 - 0.0 - - 10 - - - -
10/01:30pm 22.0 SE 15 19 1016.0 - 0.0 - - 10 - - - -
10/01:00pm 22.7 SE 15 21 1016.2 - 0.0 - - 10 - - - -
10/12:30pm 22.3 SSE 15 20 1016.5 - 0.0 - - 10 - - - -
10/12:00pm 21.9 SE 12 17 1016.7 - 0.0 - - 10 - - - -
10/11:30am 21.6 SSE 14 18 1016.9 - 0.0 - - 10 - - - -
10/11:00am 22.3 SE 13 19 1017.0 - 0.0 - - 10 - - - -
10/10:30am 21.2 SSE 13 18 1017.1 - 0.0 - - 10 - - - -
10/10:00am 20.1 SSE 14 18 1017.0 - 0.0 - - 10 - - - -
10/09:30am 19.7 SSE 12 16 1017.1 - 0.0 - - 10 - - - -
10/09:00am 19.5 SSE 11 16 1017.0 - 0.0 - - 10 - - - -
10/08:30am 18.9 SSE 11 14 1016.9 - 0.0 - Partly cloudy 10 - - - -
10/08:04am 17.8 SSE 11 19 1016.6 - 0.0 - Partly cloudy 10 - - - -
10/08:00am 17.6 SSE 11 14 1016.6 - 0.0 - Partly cloudy 10 - - - -
10/07:30am 17.0 SSE 8 10 1016.5 - 0.0 - Partly cloudy 10 - - - -
10/07:00am 16.5 SSE 9 13 1016.4 - 0.0 - Partly cloudy 10 - - - -
10/06:30am 16.3 SSE 9 13 1016.2 - 0.0 - Partly cloudy 10 - - - -
10/06:24am 16.3 SSE 10 14 1016.2 - 0.0 - Partly cloudy 10 - - - -
10/06:05am 16.2 SSE 11 14 1015.9 - 0.0 - Partly cloudy 10 - - - -
10/06:00am 16.3 SSE 11 14 1015.8 - 0.0 - Mostly clear 10 - - - -
10/05:30am 17.1 SE 11 17 1015.7 - 0.0 - Cloudy 10 - - - -
10/05:00am 17.1 SSE 8 11 1015.7 - 0.0 - Cloudy 10 - - - -
10/04:30am 17.1 SE 10 15 1015.8 - 0.0 - Cloudy 10 - - - -
10/04:00am 17.1 SE 9 13 1015.8 - 0.0 - Cloudy 10 - - - -
10/03:30am 17.1 SE 11 14 1016.1 - 0.0 - Cloudy 10 - - - -
10/03:00am 17.2 SE 8 12 1016.0 - 0.0 - Mostly cloudy 10 - - - -
10/02:30am 17.3 SSE 11 16 1016.3 - 0.0 - Cloudy 10 - - - -
10/02:00am 17.4 SSE 13 17 1016.7 - 0.0 - Cloudy 10 - - - -
10/01:30am 17.0 SSE 10 14 1016.9 - 0.0 - Cloudy 10 - - - -
10/01:11am 16.5 SSE 7 9 1016.9 - 0.0 - Partly cloudy 10 - - - -
10/01:06am 16.4 SSE 7 9 1016.9 - 0.0 - Partly cloudy 10 - - - -
10/01:00am 16.4 SSE 7 9 1016.9 - 0.0 - Partly cloudy 10 - - - -
10/12:30am 16.8 SSE 7 9 1017.1 - 0.0 - Cloudy 10 - - - -
10/12:00am 16.3 S 6 8 1017.2 - 0.0 - Partly cloudy 10 - - - -
 
Date/Time
CDT
Temp

°C
Wind Pressure Rain
since 9am
mm
Weather Cloud Vis
km
Sea
Height
m
Swell
Dir
 
Speed
knots
Gust
knots
hPa Trend Height
m
Period
s
Dir
09/11:53pm 16.0 S 7 7 1017.3 - 0.0 - Partly cloudy 10 - - - -
09/11:30pm 15.8 S 5 7 1017.4 - 0.0 - - 10 - - - -
09/11:00pm 16.5 SSE 7 10 1017.5 - 0.0 - Partly cloudy 10 - - - -
09/10:36pm 16.9 SSE 8 11 1017.8 - 0.0 - Partly cloudy 10 - - - -
09/10:34pm 17.1 SSE 9 11 1017.8 - 0.0 - Partly cloudy 10 - - - -
09/10:30pm 17.0 SSE 8 11 1017.8 - 0.0 - Partly cloudy 10 - - - -
09/10:00pm 16.9 S 7 9 1017.7 - 0.0 - Partly cloudy 10 - - - -
09/09:54pm 17.0 S 8 10 1017.9 - 0.0 - Partly cloudy 10 - - - -
09/09:30pm 16.8 S 9 11 1017.8 - 0.0 - - 10 - - - -
09/09:00pm 17.3 SSE 11 16 1017.5 - 0.0 - - 10 - - - -
09/08:30pm 17.8 SSE 11 15 1017.6 - 0.0 - - 10 - - - -
09/08:00pm 18.6 SSE 12 16 1017.5 - 0.0 - - 10 - - - -
09/07:30pm 19.6 SSE 13 17 1017.5 - 0.0 - - 10 - - - -
09/07:00pm 20.8 SE 14 18 1017.5 - 0.0 - - 10 - - - -
09/06:30pm 21.4 SSE 13 17 1017.2 - 0.0 - - 10 - - - -
09/06:00pm 22.0 SSE 13 16 1017.2 - 0.0 - - 10 - - - -
09/05:30pm 22.2 SSE 15 19 1017.4 - 0.0 - - 10 - - - -
09/05:00pm 22.7 SSE 14 17 1017.5 - 0.0 - - 10 - - - -
09/04:30pm 23.5 SE 14 17 1017.7 - 0.0 - - 10 - - - -
09/04:00pm 23.2 SE 14 19 1017.9 - 0.0 - - 10 - - - -
09/03:30pm 23.4 SSE 15 19 1018.3 - 0.0 - - 10 - - - -
09/03:00pm 24.3 SSE 15 20 1018.6 - 0.0 - - 10 - - - -
09/02:30pm 25.4 SE 13 18 1018.7 - 0.0 - - 10 - - - -
09/02:00pm 24.7 SSE 12 16 1018.9 - 0.0 - - 10 - - - -
09/01:30pm 25.3 SSE 12 19 1019.1 - 0.0 - - 10 - - - -
09/01:00pm 24.5 SSE 12 15 1019.3 - 0.0 - - 10 - - - -
09/12:30pm 24.2 SE 9 13 1019.5 - 0.0 - - 10 - - - -
09/12:00pm 24.1 SSE 10 15 1019.7 - 0.0 - - 10 - - - -
09/11:30am 23.3 SSE 11 14 1020.2 - 0.0 - - 10 - - - -
09/11:00am 23.4 SE 10 13 1020.2 - 0.0 - - 10 - - - -
09/10:30am 21.9 SE 11 18 1020.2 - 0.0 - - 10 - - - -
09/10:00am 21.0 SE 11 15 1020.6 - 0.0 - - 10 - - - -
09/09:30am 20.2 SE 12 15 1020.9 - 0.0 - - 10 - - - -
09/09:00am 19.4 SE 12 16 1021.1 - 0.0 - - 10 - - - -
09/08:30am 18.4 SE 11 15 1021.2 - 0.0 - Partly cloudy 10 - - - -
09/08:00am 18.0 SE 10 14 1021.0 - 0.0 - Partly cloudy 10 - - - -
09/07:49am 17.5 SE 9 11 1021.0 - 0.0 - Partly cloudy 10 - - - -
09/07:30am 16.9 SE 7 9 1021.0 - 0.0 - Partly cloudy 10 - - - -
09/07:00am 16.4 SE 8 11 1020.8 - 0.0 - Partly cloudy 10 - - - -
09/06:30am 16.4 SE 9 11 1020.7 - 0.0 - Partly cloudy 10 - - - -
09/06:00am 16.5 SE 9 13 1020.5 - 0.0 - Partly cloudy 10 - - - -
09/05:30am 16.9 SE 13 16 1020.5 - 0.0 - Cloudy 10 - - - -
09/05:00am 17.0 SE 12 15 1020.5 - 0.0 - Cloudy 10 - - - -
09/04:30am 16.7 SE 11 14 1020.6 - 0.0 - Partly cloudy 10 - - - -
09/04:26am 16.6 SE 11 15 1020.6 - 0.0 - Partly cloudy 10 - - - -
09/04:00am 16.4 SSE 10 14 1020.9 - 0.0 - Partly cloudy 10 - - - -
09/03:30am 16.5 SSE 10 14 1021.0 - 0.0 - - 10 - - - -
09/03:00am 16.7 SE 12 16 1021.2 - 0.0 - Mostly clear 10 - - - -
09/02:30am 17.0 SE 11 17 1021.5 - 0.0 - Partly cloudy 10 - - - -
09/02:00am 16.9 SE 11 16 1021.8 - 0.0 - Partly cloudy 10 - - - -
09/01:30am 17.1 SE 13 18 1022.0 - 0.0 - Partly cloudy 10 - - - -
09/01:00am 17.1 SE 13 18 1022.2 - 0.0 - Partly cloudy 10 - - - -
09/12:30am 17.2 SSE 12 17 1022.4 - 0.0 - Partly cloudy 10 - - - -
09/12:00am 17.2 SSE 11 17 1022.4 - 0.0 - Partly cloudy 10 - - - -
 
Date/Time
CDT
Temp

°C
Wind Pressure Rain
since 9am
mm
Weather Cloud Vis
km
Sea
Height
m
Swell
Dir
 
Speed
knots
Gust
knots
hPa Trend Height
m
Period
s
Dir
08/11:30pm 17.4 SSE 15 23 1022.5 - 0.0 - Partly cloudy 10 - - - -
08/11:00pm 17.8 SE 13 19 1022.9 - 0.0 - Partly cloudy 10 - - - -
08/10:30pm 17.9 SE 16 21 1023.1 - 0.0 - Partly cloudy 10 - - - -
08/10:00pm 18.1 SE 11 19 1023.0 - 0.0 - Partly cloudy 10 - - - -
08/09:30pm 18.0 SSE 14 19 1022.8 - 0.0 - Partly cloudy 10 - - - -
08/09:00pm 18.1 SSE 15 22 1022.5 - 0.0 - Partly cloudy 10 - - - -
08/08:30pm 18.3 SSE 16 23 1022.3 - 0.0 - Partly cloudy 10 - - - -
08/08:00pm 18.8 SSE 16 25 1022.2 - 0.0 - Partly cloudy 10 - - - -
08/07:30pm 19.4 SE 18 24 1022.1 - 0.0 - Partly cloudy 10 - - - -
08/07:00pm 19.8 SSE 18 23 1022.0 - 0.0 - Partly cloudy 10 - - - -
08/06:30pm 20.7 SSE 19 25 1021.9 - 0.0 - - 10 - - - -
08/06:00pm 21.5 SE 18 25 1021.9 - 0.0 - - 10 - - - -
08/05:30pm 22.0 SE 19 26 1022.1 - 0.0 - - 10 - - - -
08/05:00pm 22.2 SE 18 25 1022.3 - 0.0 - - 10 - - - -
08/04:30pm 22.0 SSE 19 27 1022.5 - 0.0 - - 10 - - - -
08/04:00pm 22.5 SSE 18 24 1022.7 - 0.0 - - 10 - - - -
08/03:30pm 22.3 SE 19 25 1022.9 - 0.0 - - 10 - - - -
08/03:00pm 22.1 SE 18 24 1023.0 - 0.0 - Mostly clear 10 - - - -
08/02:30pm 22.4 SSE 17 25 1023.2 - 0.0 - Partly cloudy 10 - - - -
08/02:00pm 22.1 SE 17 23 1023.4 - 0.0 - Partly cloudy 10 - - - -
08/01:30pm 21.3 SSE 19 23 1023.6 - 0.0 - Partly cloudy 10 - - - -
08/01:00pm 22.2 SE 18 23 1023.8 - 0.0 - Partly cloudy 10 - - - -
08/12:30pm 21.1 SSE 17 23 1023.9 - 0.0 - Partly cloudy 10 - - - -
08/12:00pm 23.0 SE 18 25 1024.0 - 0.0 - Partly cloudy 10 - - - -
08/11:30am 20.7 SSE 16 20 1024.1 - 0.0 - Cloudy 10 - - - -
08/11:00am 19.8 SE 16 23 1024.1 - 0.0 - Cloudy 10 - - - -
08/10:30am 19.6 SE 17 23 1024.2 - 0.0 - Cloudy 10 - - - -
08/10:00am 19.1 SSE 15 22 1024.3 - 0.0 - Cloudy 10 - - - -
08/09:30am 18.6 SE 16 21 1024.2 - 0.0 - Cloudy 10 - - - -
08/09:00am 18.3 SE 15 22 1024.1 - 0.0 - Cloudy 10 - - - -
08/08:30am 17.9 SE 15 19 1023.8 - 0.0 - Cloudy 10 - - - -
08/08:00am 17.7 SE 11 19 1023.4 - 0.0 - Cloudy 10 - - - -
08/07:30am 17.5 SE 13 18 1023.3 - 0.0 - Cloudy 10 - - - -
08/07:00am 17.3 SSE 12 18 1023.0 - 0.0 - Cloudy 10 - - - -
08/06:30am 17.2 SSE 13 21 1022.7 - 0.0 - Cloudy 10 - - - -
08/06:00am 17.2 SE 13 17 1022.4 - 0.0 - Cloudy 10 - - - -
08/05:30am 17.0 SE 9 13 1022.0 - 0.0 - Cloudy 10 - - - -
08/05:00am 17.1 SE 12 19 1021.8 - 0.0 - Cloudy 10 - - - -

Other Formats:

Comma delimited format used in spreadsheet applications
http://www.bom.gov.au/fwo/IDS60701/IDS60701.95807.axf

JavaScript Object Notation format (JSON) in row-major order
http://www.bom.gov.au/fwo/IDS60701/IDS60701.95807.json